Time;durP1;ratioP1;P1;durP2;ratioP2;P2;SDS_P1;SDS_P2;PMS_P1;PMS_P2;Temp;Humidity;BMP_temperature;BMP_pressure;BME280_temperature;BME280_humidity;BME280_pressure;Samples;Min_cycle;Max_cycle;Signal;HPM_P1;HPM_P2
2022/07/24 00:01:54;;;;;;;3.45;2.20;;;16.50;99.90;;;;;;5064254;28;20128;-77
2022/07/24 00:04:20;;;;;;;5.95;2.28;;;16.50;99.90;;;;;;5061659;28;20032;-76
2022/07/24 00:06:46;;;;;;;5.60;2.22;;;16.50;99.90;;;;;;5063743;28;20052;-77
2022/07/24 00:09:12;;;;;;;7.32;2.83;;;16.40;99.90;;;;;;5066116;28;20134;-76
2022/07/24 00:11:38;;;;;;;5.38;2.60;;;16.50;99.90;;;;;;5066537;28;20044;-75
2022/07/24 00:14:04;;;;;;;4.57;2.35;;;16.50;99.90;;;;;;5049806;28;20047;-75
2022/07/24 00:16:29;;;;;;;4.55;2.47;;;16.50;99.90;;;;;;5067135;28;20491;-75
2022/07/24 00:18:55;;;;;;;3.70;2.42;;;16.30;99.90;;;;;;5067365;28;20033;-76
2022/07/24 00:21:21;;;;;;;6.95;2.67;;;16.40;99.90;;;;;;5063409;28;20098;-75
2022/07/24 00:23:47;;;;;;;4.55;2.33;;;16.40;99.90;;;;;;5049988;28;20037;-75
2022/07/24 00:26:15;;;;;;;6.72;2.67;;;16.40;99.90;;;;;;5060719;28;20073;-76
2022/07/24 00:28:41;;;;;;;6.72;2.90;;;16.40;99.90;;;;;;5059647;28;20123;-75
2022/07/24 00:31:07;;;;;;;6.15;2.88;;;16.30;99.90;;;;;;5060330;28;20130;-76
2022/07/24 00:33:34;;;;;;;4.90;2.80;;;16.30;99.90;;;;;;5055938;28;20083;-75
2022/07/24 00:36:00;;;;;;;4.40;2.50;;;16.30;99.90;;;;;;5065253;28;20041;-75
2022/07/24 00:38:25;;;;;;;6.68;2.70;;;16.30;99.90;;;;;;5053674;28;20079;-76
2022/07/24 00:40:51;;;;;;;8.05;2.75;;;16.30;99.90;;;;;;5052376;28;20115;-76
2022/07/24 00:43:17;;;;;;;4.72;2.80;;;16.30;99.90;;;;;;5071557;28;20128;-75
2022/07/24 00:45:43;;;;;;;8.05;2.92;;;16.20;99.90;;;;;;5050153;28;20048;-74
2022/07/24 00:48:09;;;;;;;3.33;2.65;;;16.20;99.90;;;;;;5093384;27;20048;-76
2022/07/24 00:50:36;;;;;;;3.50;2.60;;;16.20;99.90;;;;;;5040697;28;20403;-76
2022/07/24 00:53:02;;;;;;;8.88;3.28;;;16.20;99.90;;;;;;5066559;28;20421;-76
2022/07/24 00:55:28;;;;;;;9.45;3.05;;;16.10;99.90;;;;;;5068054;28;20051;-77
2022/07/24 00:57:54;;;;;;;4.63;2.80;;;16.20;99.90;;;;;;5045853;28;20075;-77
2022/07/24 01:00:21;;;;;;;8.68;3.10;;;16.20;99.90;;;;;;5062170;28;20120;-77
2022/07/24 01:02:49;;;;;;;3.72;2.90;;;16.20;99.90;;;;;;5065794;28;20033;-76
2022/07/24 01:05:16;;;;;;;8.32;3.38;;;16.10;99.90;;;;;;5047158;28;20083;-76
2022/07/24 01:07:41;;;;;;;7.22;3.20;;;16.10;99.90;;;;;;5068820;28;20036;-76
2022/07/24 01:10:08;;;;;;;5.80;3.00;;;16.10;99.90;;;;;;5061247;28;20044;-77
2022/07/24 01:12:36;;;;;;;6.30;3.10;;;16.10;99.90;;;;;;5080836;28;20534;-78
2022/07/24 01:15:03;;;;;;;5.30;2.60;;;16.00;99.90;;;;;;5047849;28;20429;-77
2022/07/24 01:17:36;;;;;;;4.95;3.10;;;16.00;99.90;;;;;;5064277;28;20039;-75
2022/07/24 01:20:04;;;;;;;3.75;2.80;;;16.10;99.90;;;;;;5062865;28;20128;-77
2022/07/24 01:22:30;;;;;;;4.50;2.90;;;16.00;99.90;;;;;;5060148;28;20059;-77
2022/07/24 01:24:56;;;;;;;7.60;2.80;;;16.10;99.90;;;;;;5030025;28;20352;-77
2022/07/24 01:27:23;;;;;;;4.15;2.65;;;16.10;99.90;;;;;;5065010;28;20893;-76
2022/07/24 01:29:49;;;;;;;5.07;2.95;;;16.10;99.90;;;;;;5073658;28;20056;-77
2022/07/24 01:32:15;;;;;;;5.32;2.60;;;16.10;99.90;;;;;;5045754;28;20051;-77
2022/07/24 01:34:41;;;;;;;4.88;2.88;;;16.10;99.90;;;;;;5061874;28;20536;-76
2022/07/24 01:37:07;;;;;;;3.47;2.80;;;16.00;99.90;;;;;;5065031;28;20042;-75
2022/07/24 01:39:33;;;;;;;5.00;2.80;;;16.10;99.90;;;;;;5071071;28;20059;-77
2022/07/24 01:41:58;;;;;;;7.82;2.80;;;16.10;99.90;;;;;;5059052;28;20083;-77
2022/07/24 01:44:24;;;;;;;3.95;2.75;;;16.10;99.90;;;;;;5047686;28;20538;-76
2022/07/24 01:46:50;;;;;;;4.38;2.67;;;16.00;99.90;;;;;;5047074;28;20047;-77
2022/07/24 01:49:19;;;;;;;5.10;3.05;;;16.10;99.90;;;;;;5061908;28;20052;-76
2022/07/24 01:51:47;;;;;;;4.80;3.00;;;16.00;99.90;;;;;;5065574;28;20041;-76
2022/07/24 01:54:13;;;;;;;3.92;2.92;;;16.00;99.90;;;;;;5076612;28;20052;-77
2022/07/24 01:56:38;;;;;;;4.57;3.10;;;16.10;99.90;;;;;;5040482;28;20044;-77
2022/07/24 01:59:04;;;;;;;4.50;3.05;;;16.10;99.90;;;;;;5053363;28;20131;-76
2022/07/24 02:01:30;;;;;;;4.82;3.10;;;16.00;99.90;;;;;;5067904;28;20044;-77
2022/07/24 02:03:56;;;;;;;5.07;2.97;;;16.10;99.90;;;;;;5056931;28;20047;-75
2022/07/24 02:06:22;;;;;;;6.80;2.95;;;16.10;99.90;;;;;;5097280;28;20446;-75
2022/07/24 02:08:48;;;;;;;5.60;3.30;;;16.10;99.90;;;;;;5066003;28;20117;-75
2022/07/24 02:11:14;;;;;;;5.80;3.17;;;16.10;99.90;;;;;;5067390;28;20064;-77
2022/07/24 02:13:40;;;;;;;6.57;3.50;;;16.10;99.90;;;;;;5046338;28;20102;-77
2022/07/24 02:16:06;;;;;;;8.52;3.83;;;16.10;99.90;;;;;;5063889;28;20147;-77
2022/07/24 02:18:35;;;;;;;3.47;3.15;;;16.10;99.90;;;;;;5064456;28;20047;-77
2022/07/24 02:21:00;;;;;;;3.50;3.13;;;16.00;99.90;;;;;;5064988;28;20048;-77
2022/07/24 02:23:27;;;;;;;5.53;3.50;;;16.00;99.90;;;;;;5066358;28;20040;-77
2022/07/24 02:25:52;;;;;;;4.70;3.10;;;16.00;99.90;;;;;;5048306;28;22008;-76
2022/07/24 02:28:18;;;;;;;6.97;3.67;;;15.90;99.90;;;;;;5053780;28;20044;-76
2022/07/24 02:30:44;;;;;;;8.90;3.70;;;16.00;99.90;;;;;;5073076;28;20120;-77
2022/07/24 02:33:10;;;;;;;4.00;3.35;;;16.00;99.90;;;;;;5066491;28;20052;-76
2022/07/24 02:35:37;;;;;;;8.50;4.03;;;15.90;99.90;;;;;;5067781;28;20040;-76
2022/07/24 02:38:03;;;;;;;4.90;3.70;;;16.00;99.90;;;;;;5063478;28;20049;-77
2022/07/24 02:40:30;;;;;;;5.75;3.53;;;15.90;99.90;;;;;;5064585;28;20040;-76
2022/07/24 02:42:56;;;;;;;7.00;4.30;;;15.90;99.90;;;;;;5098732;28;20506;-76
2022/07/24 02:45:22;;;;;;;6.97;3.80;;;16.00;99.90;;;;;;5068034;28;20048;-77
2022/07/24 02:47:49;;;;;;;6.28;3.67;;;16.00;99.90;;;;;;5063055;28;20105;-77
2022/07/24 02:50:15;;;;;;;4.68;3.90;;;15.90;99.90;;;;;;5064851;28;20033;-77
2022/07/24 02:52:40;;;;;;;6.13;4.13;;;15.90;99.90;;;;;;5048073;28;20063;-75
2022/07/24 02:55:07;;;;;;;4.85;4.00;;;15.90;99.90;;;;;;5062303;28;20032;-76
2022/07/24 02:57:32;;;;;;;5.85;3.90;;;15.90;99.90;;;;;;5082289;28;20037;-76
2022/07/24 02:59:58;;;;;;;4.82;3.75;;;15.90;99.90;;;;;;5054788;28;20055;-76
2022/07/24 03:02:24;;;;;;;6.72;4.47;;;15.80;99.90;;;;;;5067676;28;20145;-77
2022/07/24 03:04:49;;;;;;;8.88;4.13;;;15.90;99.90;;;;;;5073655;28;20062;-76
2022/07/24 03:07:15;;;;;;;8.18;4.40;;;15.90;99.90;;;;;;5065952;28;20345;-77
2022/07/24 03:09:40;;;;;;;6.25;4.20;;;15.90;99.90;;;;;;5082106;28;20071;-76
2022/07/24 03:12:07;;;;;;;5.22;4.50;;;15.80;99.90;;;;;;5064318;28;20040;-76
2022/07/24 03:14:33;;;;;;;7.07;4.40;;;15.80;99.90;;;;;;5047562;28;20048;-76
2022/07/24 03:16:59;;;;;;;6.35;4.50;;;15.80;99.90;;;;;;5050133;28;20036;-76
2022/07/24 03:19:24;;;;;;;5.55;4.55;;;15.80;99.90;;;;;;5066895;28;20051;-76
2022/07/24 03:21:50;;;;;;;6.35;4.55;;;15.80;99.90;;;;;;5065004;28;20074;-75
2022/07/24 03:24:16;;;;;;;4.85;4.40;;;15.80;99.90;;;;;;5047356;28;20158;-77
2022/07/24 03:26:42;;;;;;;6.13;4.50;;;15.80;99.90;;;;;;5046061;28;20037;-77
2022/07/24 03:29:08;;;;;;;6.60;4.70;;;15.80;99.90;;;;;;5096090;28;20044;-76
2022/07/24 03:31:33;;;;;;;8.02;5.18;;;15.80;99.90;;;;;;5073295;28;20106;-75
2022/07/24 03:33:59;;;;;;;6.63;5.10;;;15.80;99.90;;;;;;5053515;28;20049;-75
2022/07/24 03:36:25;;;;;;;7.15;4.97;;;15.80;99.90;;;;;;5084749;28;20058;-76
2022/07/24 03:38:51;;;;;;;6.80;4.97;;;15.80;99.90;;;;;;5049543;28;20068;-75
2022/07/24 03:41:16;;;;;;;6.22;5.03;;;15.90;99.90;;;;;;5098550;28;20426;-78
2022/07/24 03:43:42;;;;;;;5.78;4.78;;;15.80;99.90;;;;;;5097610;28;20067;-75
2022/07/24 03:46:07;;;;;;;11.98;4.97;;;15.80;99.90;;;;;;5071142;28;20402;-76
2022/07/24 03:48:33;;;;;;;8.00;5.25;;;15.80;99.90;;;;;;5055380;28;20445;-76
2022/07/24 03:50:59;;;;;;;6.30;5.05;;;15.80;99.90;;;;;;5069438;28;20086;-75
2022/07/24 03:53:24;;;;;;;8.73;5.13;;;15.80;99.90;;;;;;5051371;28;20032;-77
2022/07/24 03:55:50;;;;;;;9.38;5.78;;;15.80;99.90;;;;;;5073154;28;20063;-77
2022/07/24 03:58:16;;;;;;;8.80;5.03;;;15.80;99.90;;;;;;5069783;28;20036;-76
2022/07/24 04:00:41;;;;;;;6.53;5.30;;;15.80;99.90;;;;;;5066273;28;20124;-74
2022/07/24 04:03:07;;;;;;;9.00;5.32;;;15.80;99.90;;;;;;5082264;28;20064;-75
2022/07/24 04:05:32;;;;;;;6.50;5.10;;;15.80;99.90;;;;;;5067690;28;20070;-77
2022/07/24 04:07:58;;;;;;;7.70;5.45;;;15.80;99.90;;;;;;5046611;28;20508;-76
2022/07/24 04:10:24;;;;;;;6.55;5.05;;;15.80;99.90;;;;;;5067785;28;20050;-76
2022/07/24 04:12:51;;;;;;;6.05;5.43;;;15.90;99.90;;;;;;5066439;28;20047;-76
2022/07/24 04:15:16;;;;;;;6.47;5.15;;;15.90;99.90;;;;;;5069357;28;20052;-76
2022/07/24 04:17:43;;;;;;;6.68;5.57;;;15.90;99.90;;;;;;5066248;28;20055;-76
2022/07/24 04:20:09;;;;;;;9.63;5.28;;;15.90;99.90;;;;;;5044826;28;20044;-76
2022/07/24 04:22:35;;;;;;;11.77;5.38;;;15.90;99.90;;;;;;5067492;28;20071;-76
2022/07/24 04:25:01;;;;;;;8.52;5.38;;;15.90;99.90;;;;;;5067622;28;22035;-75
2022/07/24 04:27:30;;;;;;;8.43;6.03;;;16.00;99.90;;;;;;5069451;28;20183;-77
2022/07/24 04:29:57;;;;;;;7.38;5.10;;;16.00;99.90;;;;;;5065477;28;20481;-77
2022/07/24 04:32:24;;;;;;;9.40;5.35;;;16.00;99.90;;;;;;5081104;28;20051;-75
2022/07/24 04:34:50;;;;;;;11.55;5.22;;;16.10;99.90;;;;;;5099042;27;20051;-76
2022/07/24 04:37:16;;;;;;;8.30;5.38;;;16.10;99.90;;;;;;5058693;28;20045;-77
2022/07/24 04:39:41;;;;;;;7.72;5.50;;;16.10;99.90;;;;;;5062978;28;20110;-76
2022/07/24 04:42:07;;;;;;;10.63;5.32;;;16.10;99.90;;;;;;5049369;28;20123;-76
2022/07/24 04:44:33;;;;;;;7.07;5.18;;;16.20;99.90;;;;;;5066054;28;20052;-77
2022/07/24 04:46:58;;;;;;;6.90;5.40;;;16.20;99.90;;;;;;5067588;28;20041;-76
2022/07/24 04:49:24;;;;;;;7.07;5.00;;;16.20;99.90;;;;;;5054040;28;20066;-76
2022/07/24 04:51:50;;;;;;;9.15;5.28;;;16.20;99.90;;;;;;5053752;28;20032;-77
2022/07/24 04:54:16;;;;;;;7.53;5.25;;;16.20;99.90;;;;;;5054437;28;20043;-75
2022/07/24 04:56:41;;;;;;;5.75;5.15;;;16.30;99.90;;;;;;5062886;28;20318;-75
2022/07/24 04:59:10;;;;;;;11.40;5.25;;;16.30;99.90;;;;;;5067672;28;20085;-75
2022/07/24 05:01:35;;;;;;;6.72;5.50;;;16.40;99.90;;;;;;5066544;28;20371;-77
2022/07/24 05:04:02;;;;;;;10.90;5.68;;;16.50;99.90;;;;;;5068013;28;20040;-77
2022/07/24 05:06:28;;;;;;;6.57;5.18;;;16.70;99.90;;;;;;5057201;28;20036;-76
2022/07/24 05:08:53;;;;;;;6.38;5.32;;;16.80;99.90;;;;;;5053370;28;20047;-75
2022/07/24 05:11:19;;;;;;;11.18;5.32;;;16.90;99.90;;;;;;5065457;28;20052;-76
2022/07/24 05:13:45;;;;;;;7.75;5.28;;;17.10;99.90;;;;;;5051653;28;20446;-76
2022/07/24 05:16:10;;;;;;;6.20;5.43;;;17.20;99.90;;;;;;5104564;27;20045;-77
2022/07/24 05:18:36;;;;;;;8.60;5.10;;;17.30;99.90;;;;;;5072955;28;20041;-77
2022/07/24 05:21:05;;;;;;;8.43;5.32;;;17.30;99.90;;;;;;5064879;28;20086;-76
2022/07/24 05:23:30;;;;;;;5.82;5.03;;;17.30;99.90;;;;;;5052159;28;20351;-75
2022/07/24 05:25:56;;;;;;;6.95;5.30;;;17.40;99.90;;;;;;5095423;27;20041;-76
2022/07/24 05:28:22;;;;;;;10.40;5.45;;;17.40;99.90;;;;;;5064085;28;20119;-76
2022/07/24 05:30:47;;;;;;;8.13;5.40;;;17.50;99.90;;;;;;5083519;28;20142;-76
2022/07/24 05:33:13;;;;;;;6.07;5.47;;;17.50;99.90;;;;;;5049786;28;20734;-76
2022/07/24 05:35:39;;;;;;;7.00;5.63;;;17.50;99.90;;;;;;5051127;28;20057;-77
2022/07/24 05:38:04;;;;;;;8.50;5.57;;;17.50;99.90;;;;;;5049240;28;20048;-77
2022/07/24 05:40:30;;;;;;;9.90;5.95;;;17.60;99.90;;;;;;5048676;28;20033;-76
2022/07/24 05:42:56;;;;;;;7.80;5.93;;;17.70;99.90;;;;;;5066242;28;20052;-76
2022/07/24 05:45:22;;;;;;;12.15;6.22;;;17.70;99.90;;;;;;5053138;28;20099;-76
2022/07/24 05:47:47;;;;;;;14.25;5.97;;;17.70;99.90;;;;;;5050205;28;20051;-77
2022/07/24 05:50:14;;;;;;;9.32;6.35;;;17.70;99.90;;;;;;5065864;28;20036;-77
2022/07/24 05:52:40;;;;;;;7.60;6.22;;;17.70;99.90;;;;;;5053448;28;20074;-77
2022/07/24 05:55:08;;;;;;;9.00;5.90;;;17.80;99.90;;;;;;5048512;28;20036;-76
2022/07/24 05:57:33;;;;;;;12.35;6.47;;;17.80;99.90;;;;;;5103080;28;20472;-76
2022/07/24 05:59:59;;;;;;;8.43;6.18;;;17.80;99.90;;;;;;5048166;28;20114;-76
2022/07/24 06:02:25;;;;;;;9.13;6.13;;;17.90;99.90;;;;;;5066002;28;20040;-77
2022/07/24 06:04:51;;;;;;;11.63;6.22;;;18.00;99.90;;;;;;5070904;28;20051;-76
2022/07/24 06:07:17;;;;;;;10.32;6.50;;;18.10;99.90;;;;;;5104063;28;20052;-77
2022/07/24 06:09:43;;;;;;;10.55;6.70;;;18.30;99.90;;;;;;5105245;27;20104;-77
2022/07/24 06:12:09;;;;;;;12.23;6.80;;;18.30;99.90;;;;;;5050278;28;20128;-76
2022/07/24 06:14:34;;;;;;;11.35;6.75;;;18.40;99.90;;;;;;5067856;28;20514;-76
2022/07/24 06:17:00;;;;;;;13.25;6.97;;;18.60;99.90;;;;;;5053930;28;20060;-76
2022/07/24 06:19:26;;;;;;;11.23;8.43;;;18.60;99.90;;;;;;5068057;28;20126;-77
2022/07/24 06:21:55;;;;;;;9.60;7.55;;;18.70;99.90;;;;;;5054432;28;20036;-75
2022/07/24 06:24:21;;;;;;;11.57;7.72;;;18.80;99.90;;;;;;5049739;28;20131;-76
2022/07/24 06:26:46;;;;;;;8.80;7.85;;;18.90;99.90;;;;;;5068429;28;20538;-78
2022/07/24 06:29:12;;;;;;;8.90;7.90;;;18.90;99.90;;;;;;5083614;28;20127;-77
2022/07/24 06:31:39;;;;;;;12.85;7.72;;;19.00;99.90;;;;;;5065430;28;20045;-76
2022/07/24 06:34:05;;;;;;;10.32;8.57;;;19.10;99.90;;;;;;5065124;28;20067;-76
2022/07/24 06:36:30;;;;;;;10.30;8.02;;;19.10;99.90;;;;;;5062007;28;20033;-77
2022/07/24 06:38:56;;;;;;;11.35;8.55;;;19.20;99.90;;;;;;5051049;28;20048;-77
2022/07/24 06:41:22;;;;;;;11.88;8.55;;;19.30;99.90;;;;;;5067391;28;20063;-77
2022/07/24 06:43:47;;;;;;;11.60;8.50;;;19.40;99.90;;;;;;5084681;28;20049;-77
2022/07/24 06:46:13;;;;;;;12.18;9.02;;;19.50;99.90;;;;;;5062041;28;20094;-76
2022/07/24 06:48:39;;;;;;;13.98;8.98;;;19.50;99.90;;;;;;5065960;28;20040;-77
2022/07/24 06:51:05;;;;;;;10.75;8.95;;;19.60;99.90;;;;;;5044518;28;20041;-77
2022/07/24 06:53:30;;;;;;;16.75;8.63;;;19.70;99.90;;;;;;5050786;28;20515;-77
2022/07/24 06:55:56;;;;;;;13.20;8.02;;;19.80;99.90;;;;;;5066355;28;20131;-77
2022/07/24 06:58:22;;;;;;;12.20;9.45;;;19.90;99.90;;;;;;5053879;28;20048;-78
2022/07/24 07:00:48;;;;;;;16.00;9.93;;;20.10;99.90;;;;;;5063160;28;20032;-78
2022/07/24 07:03:14;;;;;;;13.02;9.50;;;20.20;99.90;;;;;;5062613;28;20044;-76
2022/07/24 07:05:40;;;;;;;13.35;9.82;;;20.20;99.90;;;;;;5046274;28;20083;-77
2022/07/24 07:08:06;;;;;;;11.93;8.85;;;20.40;99.90;;;;;;5075244;28;20078;-77
2022/07/24 07:10:34;;;;;;;13.15;9.98;;;20.40;99.90;;;;;;5057729;28;20052;-80
2022/07/24 07:13:00;;;;;;;16.63;8.85;;;20.50;99.90;;;;;;5076262;28;20061;-78
2022/07/24 07:15:26;;;;;;;10.68;8.68;;;20.60;99.90;;;;;;5059939;28;20048;-78
2022/07/24 07:17:52;;;;;;;10.23;8.27;;;20.60;99.90;;;;;;5089542;27;20052;-79
2022/07/24 07:20:18;;;;;;;13.23;8.88;;;20.60;99.90;;;;;;5044275;28;20036;-78
2022/07/24 07:22:43;;;;;;;11.30;8.43;;;20.70;99.90;;;;;;5094170;28;20368;-77
2022/07/24 07:25:10;;;;;;;12.45;8.75;;;20.70;99.90;;;;;;5041966;28;20052;-78
2022/07/24 07:27:36;;;;;;;12.00;8.48;;;20.90;99.90;;;;;;5045740;28;20044;-77
2022/07/24 07:30:06;;;;;;;14.63;8.27;;;21.00;99.90;;;;;;5067553;28;20044;-76
2022/07/24 07:32:32;;;;;;;12.43;7.72;;;21.20;99.90;;;;;;5053113;28;20044;-77
2022/07/24 07:34:58;;;;;;;11.13;7.30;;;21.50;99.90;;;;;;5036818;28;20073;-80
2022/07/24 07:37:23;;;;;;;8.35;6.35;;;21.70;99.90;;;;;;5069378;28;20058;-79
2022/07/24 07:39:49;;;;;;;9.30;6.50;;;22.00;99.90;;;;;;5069113;28;20082;-79
2022/07/24 07:42:15;;;;;;;8.73;5.10;;;22.40;99.90;;;;;;5066884;28;20048;-77
2022/07/24 07:44:40;;;;;;;8.98;4.68;;;22.50;99.90;;;;;;5062498;28;20540;-79
2022/07/24 07:47:06;;;;;;;6.43;4.20;;;22.60;99.90;;;;;;5076745;28;20044;-81
2022/07/24 07:49:33;;;;;;;8.07;4.07;;;22.70;99.90;;;;;;5044551;28;20059;-78
2022/07/24 07:51:59;;;;;;;5.90;3.67;;;22.80;99.90;;;;;;5039720;28;20045;-77
2022/07/24 07:54:27;;;;;;;5.38;3.75;;;22.80;99.90;;;;;;5057059;28;20060;-80
2022/07/24 07:56:53;;;;;;;4.70;3.60;;;22.90;99.90;;;;;;5065266;28;20334;-77
2022/07/24 07:59:19;;;;;;;4.20;3.25;;;23.10;99.90;;;;;;5039933;28;20074;-79
2022/07/24 08:01:45;;;;;;;6.38;3.20;;;23.10;99.90;;;;;;5039732;28;20113;-79
2022/07/24 08:04:10;;;;;;;4.18;3.13;;;23.20;99.90;;;;;;5054615;28;20032;-80
2022/07/24 08:06:36;;;;;;;6.05;3.17;;;23.30;99.90;;;;;;5055366;28;20533;-77
2022/07/24 08:09:05;;;;;;;4.47;3.50;;;23.30;99.90;;;;;;5046066;28;20044;-79
2022/07/24 08:11:31;;;;;;;5.75;3.28;;;23.50;99.90;;;;;;5058242;28;20098;-79
2022/07/24 08:13:56;;;;;;;6.80;3.53;;;23.60;99.90;;;;;;5044903;28;20056;-76
2022/07/24 08:16:22;;;;;;;5.13;3.60;;;23.80;99.90;;;;;;5060732;28;20043;-80
2022/07/24 08:18:48;;;;;;;6.05;3.60;;;24.00;99.90;;;;;;5045129;28;20098;-78
2022/07/24 08:21:15;;;;;;;5.53;3.45;;;24.10;99.90;;;;;;5045023;28;20088;-77
2022/07/24 08:23:41;;;;;;;5.72;3.55;;;24.10;99.90;;;;;;5027040;28;20129;-77
2022/07/24 08:26:06;;;;;;;5.50;3.40;;;24.20;99.90;;;;;;5042665;28;20059;-77
2022/07/24 08:28:32;;;;;;;4.75;3.42;;;24.30;99.90;;;;;;5057551;28;20038;-78
2022/07/24 08:30:58;;;;;;;9.30;3.67;;;24.40;99.90;;;;;;5060189;28;20120;-77
2022/07/24 08:33:26;;;;;;;4.07;3.20;;;24.40;99.90;;;;;;5055902;28;20118;-78
2022/07/24 08:35:52;;;;;;;6.97;3.30;;;24.60;99.90;;;;;;5098293;27;20074;-78
2022/07/24 08:38:18;;;;;;;5.80;3.42;;;24.70;99.90;;;;;;5078125;28;20046;-78
2022/07/24 08:40:45;;;;;;;8.40;3.80;;;24.70;99.90;;;;;;5050322;28;20036;-79
2022/07/24 08:43:11;;;;;;;4.43;3.20;;;24.60;99.90;;;;;;5096660;27;20425;-78
2022/07/24 08:45:39;;;;;;;7.75;3.30;;;24.70;99.90;;;;;;5079770;28;20078;-78
2022/07/24 08:48:07;;;;;;;5.10;3.22;;;24.80;99.90;;;;;;5075899;28;20466;-80
2022/07/24 08:50:36;;;;;;;5.07;3.10;;;25.10;99.90;;;;;;5064445;28;20613;-78
2022/07/24 08:53:08;;;;;;;5.60;3.30;;;25.20;99.90;;;;;;5047452;28;20052;-79
2022/07/24 08:55:34;;;;;;;7.57;3.00;;;25.40;99.90;;;;;;5066808;28;20562;-77
2022/07/24 08:58:01;;;;;;;4.63;2.70;;;25.30;99.90;;;;;;5048472;28;20039;-78
2022/07/24 09:00:29;;;;;;;4.00;3.08;;;25.30;99.90;;;;;;5063626;28;20178;-77
2022/07/24 09:02:54;;;;;;;4.75;2.90;;;25.30;99.90;;;;;;5064930;28;20032;-78
2022/07/24 09:05:23;;;;;;;5.93;3.03;;;25.40;99.90;;;;;;5049027;28;20039;-78
2022/07/24 09:07:48;;;;;;;3.72;3.08;;;25.60;99.90;;;;;;5062852;28;20049;-77
2022/07/24 09:10:16;;;;;;;6.18;2.75;;;25.70;99.90;;;;;;5066558;28;20930;-76
2022/07/24 09:12:45;;;;;;;9.13;3.00;;;25.70;99.90;;;;;;5094539;28;20127;-77
2022/07/24 09:15:12;;;;;;;5.55;3.25;;;25.50;99.90;;;;;;5095613;27;20055;-78
2022/07/24 09:17:51;;;;;;;7.00;3.05;;;25.50;99.90;;;;;;5045048;28;20062;-80
2022/07/24 09:20:17;;;;;;;6.50;3.03;;;25.40;99.90;;;;;;5060760;28;20075;-81
2022/07/24 09:22:44;;;;;;;8.95;3.35;;;25.30;99.90;;;;;;5053490;28;20067;-81
2022/07/24 09:25:14;;;;;;;6.65;3.13;;;24.90;99.90;;;;;;5056978;28;20419;-83
2022/07/24 09:28:01;;;;;;;4.95;2.80;;;25.00;99.90;;;;;;5048761;28;20113;-80
2022/07/24 09:30:37;;;;;;;5.60;3.10;;;25.20;99.90;;;;;;5064870;28;20048;-79
2022/07/24 09:33:12;;;;;;;7.40;2.90;;;25.40;99.90;;;;;;5063305;28;20134;-81
2022/07/24 09:35:40;;;;;;;4.47;3.30;;;25.50;99.90;;;;;;5044049;28;20040;-80
2022/07/24 09:38:18;;;;;;;5.75;2.88;;;25.50;99.90;;;;;;5049431;28;20040;-79
2022/07/24 09:40:46;;;;;;;4.07;2.60;;;25.60;99.90;;;;;;5044504;28;20488;-80
2022/07/24 09:43:25;;;;;;;7.32;2.60;;;25.70;99.90;;;;;;5070973;28;20032;-81
2022/07/24 09:45:59;;;;;;;6.03;2.22;;;25.70;99.90;;;;;;5047546;28;20036;-80
2022/07/24 09:48:31;;;;;;;5.70;2.20;;;25.80;99.90;;;;;;5057306;28;20166;-80
2022/07/24 09:51:03;;;;;;;2.90;2.00;;;25.80;99.90;;;;;;5052239;28;20091;-81
2022/07/24 09:53:34;;;;;;;5.55;2.08;;;25.90;99.90;;;;;;5055466;28;20040;-81
2022/07/24 09:56:14;;;;;;;3.80;2.03;;;26.10;99.90;;;;;;5062573;28;20388;-81
2022/07/24 09:58:52;;;;;;;4.60;2.28;;;26.00;99.90;;;;;;5058357;28;20028;-82
2022/07/24 10:01:21;;;;;;;3.33;2.00;;;25.90;99.90;;;;;;5044311;28;20123;-79
2022/07/24 10:03:48;;;;;;;2.65;2.08;;;26.10;99.90;;;;;;5054548;28;20044;-79
2022/07/24 10:06:17;;;;;;;2.72;2.17;;;26.30;99.90;;;;;;5034222;28;20127;-79
2022/07/24 10:08:45;;;;;;;8.85;2.55;;;26.50;99.90;;;;;;5063482;28;20101;-78
2022/07/24 10:11:12;;;;;;;3.60;2.10;;;26.60;99.90;;;;;;5074274;28;20039;-77
2022/07/24 10:13:39;;;;;;;7.32;2.08;;;26.80;99.90;;;;;;5041718;28;20045;-78
2022/07/24 10:16:13;;;;;;;4.45;2.20;;;26.80;99.90;;;;;;5071008;28;20123;-76
2022/07/24 10:19:04;;;;;;;11.05;2.33;;;26.80;99.90;;;;;;5053561;28;20048;-77
2022/07/24 10:21:35;;;;;;;4.90;2.00;;;26.90;99.90;;;;;;5054050;28;20099;-78
2022/07/24 10:24:06;;;;;;;6.55;2.08;;;26.70;99.90;;;;;;5070346;28;20136;-78
2022/07/24 10:30:13;;;;;;;3.90;2.17;;;26.50;99.90;;;;;;5070440;28;20039;-74
2022/07/24 10:32:39;;;;;;;4.38;2.63;;;26.50;99.90;;;;;;5077894;28;20064;-75
2022/07/24 10:35:21;;;;;;;3.38;1.83;;;26.60;99.90;;;;;;5054999;28;20508;-78
2022/07/24 10:38:01;;;;;;;4.10;2.00;;;26.80;99.90;;;;;;5075080;28;20040;-78
2022/07/24 10:40:42;;;;;;;5.15;1.95;;;26.80;99.90;;;;;;5062643;28;20037;-78
2022/07/24 10:43:16;;;;;;;5.05;2.10;;;27.00;99.90;;;;;;5065164;28;20139;-77
2022/07/24 10:45:55;;;;;;;7.38;2.30;;;27.20;99.90;;;;;;5057298;28;20137;-78
2022/07/24 10:48:21;;;;;;;3.55;1.88;;;27.50;99.90;;;;;;5054378;28;20044;-77
2022/07/24 10:51:01;;;;;;;5.43;2.05;;;27.70;99.90;;;;;;5051386;28;20040;-76
2022/07/24 10:53:42;;;;;;;2.92;2.03;;;27.70;99.30;;;;;;5067279;28;20093;-78
2022/07/24 10:56:29;;;;;;;3.50;1.90;;;27.70;99.60;;;;;;5050929;28;20075;-77
2022/07/24 10:59:04;;;;;;;4.20;1.98;;;27.60;99.90;;;;;;5100637;28;20494;-78
2022/07/24 11:01:34;;;;;;;7.78;2.00;;;27.60;99.90;;;;;;5070418;28;20083;-76
2022/07/24 11:04:01;;;;;;;3.88;1.98;;;27.30;99.50;;;;;;5070875;28;20047;-77
2022/07/24 11:06:50;;;;;;;3.67;1.83;;;27.40;99.80;;;;;;5071517;28;20042;-79
2022/07/24 11:09:18;;;;;;;4.65;2.10;;;27.70;99.90;;;;;;5067305;28;20079;-77
2022/07/24 11:11:53;;;;;;;3.40;1.75;;;27.70;99.30;;;;;;5052499;28;20557;-77
2022/07/24 11:14:37;;;;;;;4.13;2.17;;;27.50;99.50;;;;;;5065935;28;20048;-77
2022/07/24 11:17:40;;;;;;;7.07;2.17;;;27.70;99.60;;;;;;5069822;28;20053;-79
2022/07/24 11:20:13;;;;;;;4.07;1.95;;;27.80;99.90;;;;;;5067509;28;20032;-79
2022/07/24 11:22:43;;;;;;;4.22;2.20;;;28.10;99.40;;;;;;5051754;28;20340;-78
2022/07/24 11:25:13;;;;;;;5.25;2.22;;;28.00;98.90;;;;;;5060682;28;20040;-76
2022/07/24 11:28:08;;;;;;;6.80;2.00;;;28.00;99.10;;;;;;5091962;28;20068;-79
2022/07/24 11:30:40;;;;;;;;;;;28.10;98.70;;;;;;5036001;28;20055;-79
2022/07/24 11:33:07;;;;;;;5.85;2.35;;;28.40;98.30;;;;;;5071560;28;19947;-78
2022/07/24 11:35:35;;;;;;;7.05;2.55;;;28.40;98.60;;;;;;5044942;28;20044;-80
2022/07/24 11:38:05;;;;;;;8.32;1.90;;;28.60;98.00;;;;;;5059708;28;20032;-80
2022/07/24 11:40:31;;;;;;;5.15;2.00;;;28.60;98.50;;;;;;5088653;28;20053;-77
2022/07/24 11:42:59;;;;;;;4.85;2.33;;;28.90;98.70;;;;;;5063787;28;22221;-77
2022/07/24 11:45:25;;;;;;;5.80;2.03;;;29.10;98.10;;;;;;5045668;28;20037;-78
2022/07/24 11:47:54;;;;;;;4.10;2.00;;;29.40;97.80;;;;;;5082485;28;20037;-78
2022/07/24 11:50:22;;;;;;;5.40;2.08;;;29.40;98.00;;;;;;5103545;28;20121;-81
2022/07/24 11:52:47;;;;;;;4.82;1.83;;;29.70;97.30;;;;;;5058065;28;20165;-76
2022/07/24 11:55:18;;;;;;;4.40;1.80;;;29.70;97.40;;;;;;5084270;28;20064;-81
2022/07/24 11:57:48;;;;;;;2.97;1.60;;;29.90;96.90;;;;;;5052927;28;20036;-81
2022/07/24 12:00:20;;;;;;;2.85;1.80;;;29.70;96.00;;;;;;5045888;28;20071;-78
2022/07/24 12:02:48;;;;;;;2.17;1.70;;;29.80;96.80;;;;;;5056836;28;20048;-78
2022/07/24 12:05:27;;;;;;;5.78;1.95;;;30.00;96.90;;;;;;5072795;28;20419;-78
2022/07/24 12:07:56;;;;;;;4.43;2.05;;;30.10;96.50;;;;;;5061647;28;20043;-79
2022/07/24 12:10:22;;;;;;;2.78;1.75;;;29.90;96.50;;;;;;5080420;28;20072;-80
2022/07/24 12:12:51;;;;;;;8.63;2.00;;;29.60;96.70;;;;;;5082061;28;20063;-77
2022/07/24 12:15:17;;;;;;;3.67;1.90;;;29.50;96.80;;;;;;5061768;28;20194;-78
2022/07/24 12:17:58;;;;;;;3.58;1.70;;;29.60;96.70;;;;;;5098096;27;20040;-79
2022/07/24 12:20:35;;;;;;;2.90;1.90;;;29.60;96.10;;;;;;5078220;28;20055;-79
2022/07/24 12:23:14;;;;;;;2.67;1.80;;;29.80;96.30;;;;;;5090981;28;20035;-79
2022/07/24 12:25:40;;;;;;;7.88;1.92;;;29.60;96.60;;;;;;5050151;28;20044;-77
2022/07/24 12:28:18;;;;;;;9.95;1.92;;;30.00;96.10;;;;;;5049341;28;20127;-79
2022/07/24 12:30:51;;;;;;;9.25;1.90;;;30.10;95.70;;;;;;5053749;28;20040;-78
2022/07/24 12:33:24;;;;;;;3.22;1.80;;;30.10;96.10;;;;;;5070520;28;20119;-80
2022/07/24 12:36:14;;;;;;;5.70;1.90;;;30.30;95.90;;;;;;5067578;28;20056;-78
2022/07/24 12:38:52;;;;;;;3.72;1.70;;;30.30;96.00;;;;;;5049217;28;20299;-79
2022/07/24 12:41:25;;;;;;;3.78;1.70;;;30.50;95.30;;;;;;5056970;28;20044;-78
2022/07/24 12:43:57;;;;;;;6.80;2.00;;;30.50;95.00;;;;;;5051187;28;20348;-78
2022/07/24 12:46:40;;;;;;;4.70;1.98;;;30.40;95.00;;;;;;5071928;28;20141;-80
2022/07/24 12:49:11;;;;;;;5.00;1.60;;;30.40;95.10;;;;;;5067204;28;20108;-78
2022/07/24 12:51:54;;;;;;;4.35;1.70;;;30.50;94.90;;;;;;5066744;28;20139;-80
2022/07/24 12:54:25;;;;;;;2.88;1.65;;;30.30;95.40;;;;;;5061770;28;20044;-80